Time;durP1;ratioP1;P1;durP2;ratioP2;P2;SDS_P1;SDS_P2;PMS_P1;PMS_P2;Temp;Humidity;BMP_temperature;BMP_pressure;BME280_temperature;BME280_humidity;BME280_pressure;Samples;Min_cycle;Max_cycle;Signal;HPM_P1;HPM_P2
2022/05/17 00:00:11;;;;;;;;;;;16.40;99.90;;;;;;5092547;27;36508;-46
2022/05/17 00:02:39;;;;;;;;;;;16.40;99.90;;;;;;5092182;27;38420;-45
2022/05/17 00:05:06;;;;;;;;;;;16.30;99.90;;;;;;5092685;27;37049;-48
2022/05/17 00:07:34;;;;;;;;;;;16.30;99.90;;;;;;5093434;27;36792;-48
2022/05/17 00:10:01;;;;;;;;;;;16.30;99.90;;;;;;5093893;27;37616;-45
2022/05/17 00:12:28;;;;;;;;;;;16.30;99.90;;;;;;5094020;27;38611;-47
2022/05/17 00:14:56;;;;;;;;;;;16.30;99.90;;;;;;5093740;27;38098;-45
2022/05/17 00:17:23;;;;;;;;;;;16.20;99.90;;;;;;5091974;27;38401;-45
2022/05/17 00:19:50;;;;;;;;;;;16.20;99.90;;;;;;5091766;27;37894;-48
2022/05/17 00:22:18;;;;;;;;;;;16.20;99.90;;;;;;5093401;27;34889;-45
2022/05/17 00:24:45;;;;;;;;;;;16.20;99.90;;;;;;5092814;27;38142;-46
2022/05/17 00:27:12;;;;;;;;;;;16.20;99.90;;;;;;5092946;27;36998;-47
2022/05/17 00:29:39;;;;;;;;;;;16.20;99.90;;;;;;5091329;27;37676;-44
2022/05/17 00:32:08;;;;;;;;;;;16.20;99.90;;;;;;5093234;27;38295;-45
2022/05/17 00:34:36;;;;;;;;;;;16.20;99.90;;;;;;5091373;27;37283;-46
2022/05/17 00:37:03;;;;;;;;;;;16.20;99.90;;;;;;5093353;27;37045;-45
2022/05/17 00:39:31;;;;;;;;;;;16.20;99.90;;;;;;5093582;27;37917;-49
2022/05/17 00:41:58;;;;;;;;;;;16.20;99.90;;;;;;5091824;27;37797;-48
2022/05/17 00:44:42;;;;;;;;;;;16.20;99.90;;;;;;5093305;27;36021;-47
2022/05/17 00:47:13;;;;;;;;;;;16.20;99.90;;;;;;5092290;27;37184;-46
2022/05/17 00:49:42;;;;;;;;;;;16.10;99.90;;;;;;5091375;27;37780;-45
2022/05/17 00:52:10;;;;;;;;;;;16.10;99.90;;;;;;5092654;27;39529;-47
2022/05/17 00:54:38;;;;;;;;;;;16.10;99.90;;;;;;5090856;27;35793;-45
2022/05/17 00:57:09;;;;;;;;;;;16.10;99.90;;;;;;5093451;27;35899;-48
2022/05/17 00:59:37;;;;;;;;;;;16.10;99.90;;;;;;5092856;27;39057;-45
2022/05/17 01:02:05;;;;;;;;;;;16.10;99.90;;;;;;5093163;27;38133;-46
2022/05/17 01:04:34;;;;;;;;;;;16.10;99.90;;;;;;5092048;27;37375;-47
2022/05/17 01:07:03;;;;;;;;;;;16.10;99.90;;;;;;5090150;27;36953;-46
2022/05/17 01:09:30;;;;;;;;;;;16.00;99.90;;;;;;5092007;27;37668;-47
2022/05/17 01:11:57;;;;;;;;;;;16.00;99.90;;;;;;5093073;27;36299;-45
2022/05/17 01:17:09;;;;;;;;;;;15.90;99.90;;;;;;5096855;27;36350;-49
2022/05/17 01:19:40;;;;;;;;;;;16.00;99.90;;;;;;5095582;27;38656;-45
2022/05/17 01:22:08;;;;;;;;;;;15.90;99.90;;;;;;5095404;27;38202;-46
2022/05/17 01:24:36;;;;;;;;;;;15.90;99.90;;;;;;5094081;27;37729;-49
2022/05/17 01:27:06;;;;;;;;;;;15.90;99.90;;;;;;5096481;27;35061;-48
2022/05/17 01:29:37;;;;;;;;;;;15.90;99.90;;;;;;5096520;27;38479;-44
2022/05/17 01:32:05;;;;;;;;;;;15.90;99.90;;;;;;5094261;27;39971;-47
2022/05/17 01:34:32;;;;;;;;;;;15.90;99.90;;;;;;5095752;27;37079;-47
2022/05/17 01:36:59;;;;;;;;;;;15.90;99.90;;;;;;5095062;27;36159;-46
2022/05/17 01:39:28;;;;;;;;;;;15.90;99.90;;;;;;5095538;27;36467;-45
2022/05/17 01:41:55;;;;;;;;;;;15.90;99.90;;;;;;5094420;27;37958;-48
2022/05/17 01:44:23;;;;;;;;;;;15.90;99.90;;;;;;5096075;27;37358;-44
2022/05/17 01:46:50;;;;;;;;;;;15.90;99.90;;;;;;5094312;27;37448;-46
2022/05/17 01:49:17;;;;;;;;;;;15.90;99.90;;;;;;5095796;27;38373;-45
2022/05/17 01:51:44;;;;;;;;;;;15.90;99.90;;;;;;5094149;27;38150;-44
2022/05/17 01:54:11;;;;;;;;;;;15.80;99.90;;;;;;5094583;27;36982;-49
2022/05/17 01:56:40;;;;;;;;;;;15.90;99.90;;;;;;5095462;27;37512;-44
2022/05/17 01:59:07;;;;;;;;;;;15.80;99.90;;;;;;5096283;27;37824;-58
2022/05/17 02:01:34;;;;;;;;;;;15.80;99.90;;;;;;5094359;27;41627;-58
2022/05/17 02:04:01;;;;;;;;;;;15.80;99.90;;;;;;5092705;27;38948;-59
2022/05/17 02:06:28;;;;;;;;;;;15.80;99.90;;;;;;5095477;27;36329;-58
2022/05/17 02:08:56;;;;;;;;;;;15.80;99.90;;;;;;5096518;27;37466;-58
2022/05/17 02:11:23;;;;;;;;;;;15.80;99.90;;;;;;5095313;27;39589;-58
2022/05/17 02:13:51;;;;;;;;;;;15.80;99.90;;;;;;5094190;27;38045;-59
2022/05/17 02:16:18;;;;;;;;;;;15.70;99.90;;;;;;5095002;27;35605;-58
2022/05/17 02:18:45;;;;;;;;;;;15.70;99.90;;;;;;5095079;27;37932;-58
2022/05/17 02:21:12;;;;;;;;;;;15.70;99.90;;;;;;5094427;27;38678;-59
2022/05/17 02:23:39;;;;;;;;;;;15.70;99.90;;;;;;5094515;27;38421;-58
2022/05/17 02:26:06;;;;;;;;;;;15.60;99.90;;;;;;5092160;27;36380;-58
2022/05/17 02:28:33;;;;;;;;;;;15.60;99.90;;;;;;5094884;27;37984;-58
2022/05/17 02:31:02;;;;;;;;;;;15.60;99.90;;;;;;5095146;27;37971;-58
2022/05/17 02:33:29;;;;;;;;;;;15.60;99.90;;;;;;5094734;27;38532;-58
2022/05/17 02:35:56;;;;;;;;;;;15.60;99.90;;;;;;5094114;27;36219;-58
2022/05/17 02:38:23;;;;;;;;;;;15.50;99.90;;;;;;5094918;27;40161;-58
2022/05/17 02:40:50;;;;;;;;;;;15.50;99.90;;;;;;5094030;27;38751;-58
2022/05/17 02:43:17;;;;;;;;;;;15.50;99.90;;;;;;5095552;27;37895;-58
2022/05/17 02:45:44;;;;;;;;;;;15.50;99.90;;;;;;5094194;27;37903;-58
2022/05/17 02:48:13;;;;;;;;;;;15.50;99.90;;;;;;5095191;27;38287;-59
2022/05/17 02:50:40;;;;;;;;;;;15.50;99.90;;;;;;5092716;27;37942;-58
2022/05/17 02:53:07;;;;;;;;;;;15.50;99.90;;;;;;5094837;27;38327;-58
2022/05/17 02:55:34;;;;;;;;;;;15.40;99.90;;;;;;5094250;27;37045;-58
2022/05/17 02:58:01;;;;;;;;;;;15.40;99.90;;;;;;5090201;27;38523;-58
2022/05/17 03:00:28;;;;;;;;;;;15.40;99.90;;;;;;5093685;27;39915;-58
2022/05/17 03:02:55;;;;;;;;;;;15.40;99.90;;;;;;5094046;27;37290;-58
2022/05/17 03:05:24;;;;;;;;;;;15.40;99.90;;;;;;5095387;27;37164;-58
2022/05/17 03:07:51;;;;;;;;;;;15.40;99.90;;;;;;5093861;27;36480;-58
2022/05/17 03:10:18;;;;;;;;;;;15.40;99.90;;;;;;5093174;27;38884;-58
2022/05/17 03:12:46;;;;;;;;;;;15.30;99.90;;;;;;5095112;27;36112;-58
2022/05/17 03:15:17;;;;;;;;;;;15.30;99.90;;;;;;5093251;27;36660;-46
2022/05/17 03:17:44;;;;;;;;;;;15.30;99.90;;;;;;5092826;27;37788;-46
2022/05/17 03:20:11;;;;;;;;;;;15.30;99.90;;;;;;5092070;27;39254;-45
2022/05/17 03:22:40;;;;;;;;;;;15.30;99.90;;;;;;5093382;27;39192;-45
2022/05/17 03:25:07;;;;;;;;;;;15.30;99.90;;;;;;5092948;27;36092;-46
2022/05/17 03:27:34;;;;;;;;;;;15.30;99.90;;;;;;5092097;27;38591;-48
2022/05/17 03:30:01;;;;;;;;;;;15.30;99.90;;;;;;5093246;27;39562;-48
2022/05/17 03:32:28;;;;;;;;;;;15.30;99.90;;;;;;5094723;27;39919;-48
2022/05/17 03:34:55;;;;;;;;;;;15.30;99.90;;;;;;5092328;27;36261;-47
2022/05/17 03:37:22;;;;;;;;;;;15.30;99.90;;;;;;5094148;27;38964;-46
2022/05/17 03:39:52;;;;;;;;;;;15.30;99.90;;;;;;5093507;27;39339;-44
2022/05/17 03:42:19;;;;;;;;;;;15.20;99.90;;;;;;5092991;27;36273;-46
2022/05/17 03:44:46;;;;;;;;;;;15.30;99.90;;;;;;5094518;27;35957;-47
2022/05/17 03:47:13;;;;;;;;;;;15.20;99.90;;;;;;5092767;27;38137;-45
2022/05/17 03:49:40;;;;;;;;;;;15.20;99.90;;;;;;5093216;27;37595;-46
2022/05/17 03:52:09;;;;;;;;;;;15.20;99.90;;;;;;5091890;27;37778;-47
2022/05/17 03:54:36;;;;;;;;;;;15.20;99.90;;;;;;5093543;27;36932;-46
2022/05/17 03:57:05;;;;;;;;;;;15.30;99.90;;;;;;5093525;27;38983;-44
2022/05/17 03:59:33;;;;;;;;;;;15.30;99.90;;;;;;5094266;27;38462;-48
2022/05/17 04:02:00;;;;;;;;;;;15.30;99.90;;;;;;5094171;27;35922;-45
2022/05/17 04:04:27;;;;;;;;;;;15.30;99.90;;;;;;5092557;27;36465;-58
2022/05/17 04:06:54;;;;;;;;;;;15.30;99.90;;;;;;5090527;27;36479;-58
2022/05/17 04:09:21;;;;;;;;;;;15.40;99.90;;;;;;5093339;27;37622;-58
2022/05/17 04:11:48;;;;;;;;;;;15.40;99.90;;;;;;5091832;27;38734;-58
2022/05/17 04:14:17;;;;;;;;;;;15.50;99.90;;;;;;5092857;27;36852;-58
2022/05/17 04:16:44;;;;;;;;;;;15.60;99.90;;;;;;5092914;27;38262;-57
2022/05/17 04:19:14;;;;;;;;;;;15.70;99.90;;;;;;5091340;27;38778;-58
2022/05/17 04:21:41;;;;;;;;;;;15.90;99.90;;;;;;5090071;27;37221;-58
2022/05/17 04:24:08;;;;;;;;;;;16.10;99.90;;;;;;5089680;27;37610;-59
2022/05/17 04:26:35;;;;;;;;;;;16.40;99.90;;;;;;5086912;27;37910;-58
2022/05/17 04:29:07;;;;;;;;;;;16.50;99.90;;;;;;5091495;27;38139;-58
2022/05/17 04:31:35;;;;;;;;;;;16.50;99.90;;;;;;5091330;27;36911;-47
2022/05/17 04:34:03;;;;;;;;;;;16.50;99.90;;;;;;5092132;27;37100;-45
2022/05/17 04:36:30;;;;;;;;;;;16.60;99.90;;;;;;5092252;27;36573;-44
2022/05/17 04:38:57;;;;;;;;;;;16.70;99.90;;;;;;5093616;27;37952;-47
2022/05/17 04:41:24;;;;;;;;;;;16.90;99.90;;;;;;5092390;27;37834;-46
2022/05/17 04:43:51;;;;;;;;;;;17.00;99.90;;;;;;5091302;27;37800;-48
2022/05/17 04:46:18;;;;;;;;;;;17.10;99.90;;;;;;5091295;27;37600;-44
2022/05/17 04:48:47;;;;;;;;;;;17.30;99.90;;;;;;5089714;27;38168;-45
2022/05/17 04:51:14;;;;;;;;;;;17.40;99.90;;;;;;5092448;27;37262;-48
2022/05/17 04:53:42;;;;;;;;;;;17.50;99.90;;;;;;5093722;27;36493;-47
2022/05/17 04:56:09;;;;;;;;;;;17.60;99.90;;;;;;5092321;27;38641;-45
2022/05/17 04:58:36;;;;;;;;;;;17.70;99.90;;;;;;5091440;27;37493;-47
2022/05/17 05:01:04;;;;;;;;;;;17.70;99.90;;;;;;5090727;27;38185;-45
2022/05/17 05:03:31;;;;;;;;;;;17.70;99.90;;;;;;5091119;27;36200;-47
2022/05/17 05:05:59;;;;;;;;;;;17.60;99.90;;;;;;5092178;27;37629;-46
2022/05/17 05:08:27;;;;;;;;;;;17.40;99.90;;;;;;5089932;27;37672;-45
2022/05/17 05:10:54;;;;;;;;;;;17.30;99.90;;;;;;5088550;27;35867;-48
2022/05/17 05:13:22;;;;;;;;;;;17.20;99.90;;;;;;5082858;27;36988;-48
2022/05/17 05:15:49;;;;;;;;;;;17.10;99.90;;;;;;5088961;27;38787;-46
2022/05/17 05:18:17;;;;;;;;;;;17.00;99.90;;;;;;5090943;27;36896;-47
2022/05/17 05:20:44;;;;;;;;;;;17.10;99.90;;;;;;5092727;27;36081;-44
2022/05/17 05:23:13;;;;;;;;;;;17.10;99.90;;;;;;5092810;27;36145;-48
2022/05/17 05:25:40;;;;;;;;;;;17.20;99.90;;;;;;5090990;27;37436;-44
2022/05/17 05:28:07;;;;;;;;;;;17.30;99.90;;;;;;5089601;27;37746;-45
2022/05/17 05:30:34;;;;;;;;;;;17.40;99.90;;;;;;5093270;27;37661;-47
2022/05/17 05:33:01;;;;;;;;;;;17.30;99.90;;;;;;5092579;27;37857;-47
2022/05/17 05:35:29;;;;;;;;;;;17.30;99.90;;;;;;5092728;27;37778;-47
2022/05/17 05:37:59;;;;;;;;;;;17.40;99.90;;;;;;5091092;27;37817;-47
2022/05/17 05:40:27;;;;;;;;;;;17.50;99.90;;;;;;5090126;27;35958;-47
2022/05/17 05:42:56;;;;;;;;;;;17.60;99.90;;;;;;5091828;27;36705;-45
2022/05/17 05:45:23;;;;;;;;;;;17.80;99.90;;;;;;5092279;27;39461;-47
2022/05/17 05:47:50;;;;;;;;;;;18.00;99.90;;;;;;5090915;27;39217;-47
2022/05/17 05:50:17;;;;;;;;;;;18.20;99.90;;;;;;5089281;27;38730;-47
2022/05/17 05:52:44;;;;;;;;;;;18.30;99.90;;;;;;5092692;27;36319;-46
2022/05/17 05:55:15;;;;;;;;;;;18.40;99.90;;;;;;5091467;27;36564;-49
2022/05/17 05:57:43;;;;;;;;;;;18.60;99.90;;;;;;5090457;27;38351;-49
2022/05/17 06:00:12;;;;;;;;;;;18.70;99.90;;;;;;5091515;27;35831;-48
2022/05/17 06:02:39;;;;;;;;;;;18.80;99.90;;;;;;5095582;27;35696;-47
2022/05/17 06:05:06;;;;;;;;;;;18.80;99.90;;;;;;5095629;27;39205;-46
2022/05/17 06:07:35;;;;;;;;;;;18.80;99.70;;;;;;5094947;27;39529;-48
2022/05/17 06:10:02;;;;;;;;;;;18.80;99.70;;;;;;5095495;27;37067;-46
2022/05/17 06:12:29;;;;;;;;;;;18.80;99.60;;;;;;5095919;27;35796;-48
2022/05/17 06:14:58;;;;;;;;;;;18.90;99.90;;;;;;5094678;27;38340;-46
2022/05/17 06:17:27;;;;;;;;;;;19.00;99.60;;;;;;5094338;27;39249;-46
2022/05/17 06:19:55;;;;;;;;;;;19.10;99.70;;;;;;5095093;27;36966;-46
2022/05/17 06:22:22;;;;;;;;;;;19.20;99.60;;;;;;5095366;27;36425;-44
2022/05/17 06:24:49;;;;;;;;;;;19.40;99.70;;;;;;5096052;27;37250;-47
2022/05/17 06:27:16;;;;;;;;;;;19.40;99.60;;;;;;5093532;27;37947;-46
2022/05/17 06:29:43;;;;;;;;;;;19.50;99.40;;;;;;5095709;27;37722;-45
2022/05/17 06:32:13;;;;;;;;;;;19.60;99.30;;;;;;5095291;27;36213;-46
2022/05/17 06:34:40;;;;;;;;;;;19.60;99.00;;;;;;5093309;27;39733;-46
2022/05/17 06:37:07;;;;;;;;;;;19.60;98.90;;;;;;5094880;27;38052;-44
2022/05/17 06:39:34;;;;;;;;;;;19.60;98.90;;;;;;5093703;27;36724;-49
2022/05/17 06:42:01;;;;;;;;;;;19.60;98.40;;;;;;5093154;27;36928;-45
2022/05/17 06:44:29;;;;;;;;;;;19.50;98.10;;;;;;5095433;27;36586;-46
2022/05/17 06:46:58;;;;;;;;;;;19.50;98.50;;;;;;5094705;27;37430;-47
2022/05/17 06:49:27;;;;;;;;;;;19.40;98.50;;;;;;5093626;27;38936;-45
2022/05/17 06:51:57;;;;;;;;;;;19.40;98.40;;;;;;5095292;27;35215;-49
2022/05/17 06:54:24;;;;;;;;;;;19.40;98.60;;;;;;5094809;27;37779;-46
2022/05/17 06:56:51;;;;;;;;;;;19.50;98.40;;;;;;5094020;27;37105;-46
2022/05/17 06:59:19;;;;;;;;;;;19.50;98.60;;;;;;5094144;27;37746;-46
2022/05/17 07:01:47;;;;;;;;;;;19.60;98.10;;;;;;5094343;27;36915;-47
2022/05/17 07:04:14;;;;;;;;;;;19.60;98.00;;;;;;5094452;27;37613;-49
2022/05/17 07:06:43;;;;;;;;;;;19.60;98.70;;;;;;5094276;27;38690;-47
2022/05/17 07:09:12;;;;;;;;;;;19.70;98.50;;;;;;5094288;27;35969;-45
2022/05/17 07:14:23;;;;;;;;;;;19.80;98.30;;;;;;5093863;27;39404;-47
2022/05/17 07:16:51;;;;;;;;;;;19.90;98.60;;;;;;5094173;27;37258;-50
2022/05/17 07:19:18;;;;;;;;;;;20.00;98.30;;;;;;5094856;27;36566;-48
2022/05/17 07:21:46;;;;;;;;;;;20.00;97.80;;;;;;5095274;27;36016;-47
2022/05/17 07:24:13;;;;;;;;;;;20.10;98.20;;;;;;5091268;27;38415;-46
2022/05/17 07:26:40;;;;;;;;;;;20.10;98.20;;;;;;5090842;27;37437;-46
2022/05/17 07:29:08;;;;;;;;;;;20.20;98.30;;;;;;5091078;27;37078;-45
2022/05/17 07:31:35;;;;;;;;;;;20.30;97.90;;;;;;5093665;27;36457;-50
2022/05/17 07:34:03;;;;;;;;;;;20.30;97.00;;;;;;5093684;27;36559;-45
2022/05/17 07:36:30;;;;;;;;;;;20.30;97.30;;;;;;5093884;27;37653;-47
2022/05/17 07:38:59;;;;;;;;;;;20.40;97.70;;;;;;5094268;27;37681;-48
2022/05/17 07:41:26;;;;;;;;;;;20.50;97.70;;;;;;5093922;27;37701;-48
2022/05/17 07:43:53;;;;;;;;;;;20.60;97.10;;;;;;5093076;27;36560;-48
2022/05/17 07:46:20;;;;;;;;;;;20.60;96.60;;;;;;5093283;27;38831;-46
2022/05/17 07:48:47;;;;;;;;;;;20.70;96.30;;;;;;5092368;27;36175;-48
2022/05/17 07:51:14;;;;;;;;;;;20.70;96.50;;;;;;5094455;27;36608;-49
2022/05/17 07:53:41;;;;;;;;;;;20.80;96.40;;;;;;5093727;27;39215;-49
2022/05/17 07:56:10;;;;;;;;;;;20.90;96.20;;;;;;5093172;27;39016;-45
2022/05/17 07:58:38;;;;;;;;;;;20.90;96.60;;;;;;5094113;27;36066;-48
2022/05/17 08:01:05;;;;;;;;;;;21.00;95.90;;;;;;5093654;27;36080;-47
2022/05/17 08:03:32;;;;;;;;;;;21.00;95.80;;;;;;5093164;27;36480;-49
2022/05/17 08:05:59;;;;;;;;;;;21.00;95.80;;;;;;5091667;27;38298;-48
2022/05/17 08:08:26;;;;;;;;;;;21.00;96.00;;;;;;5089537;27;37016;-48
2022/05/17 08:10:54;;;;;;;;;;;21.10;95.80;;;;;;5087155;27;35207;-48
2022/05/17 08:13:23;;;;;;;;;;;21.20;95.20;;;;;;5094103;27;38367;-47
2022/05/17 08:15:51;;;;;;;;;;;21.10;95.50;;;;;;5093917;27;38112;-48
2022/05/17 08:18:18;;;;;;;;;;;21.20;95.60;;;;;;5092667;27;37245;-48
2022/05/17 08:20:45;;;;;;;;;;;21.30;95.40;;;;;;5093332;27;35155;-46
2022/05/17 08:23:13;;;;;;;;;;;21.40;94.90;;;;;;5094447;27;36959;-48
2022/05/17 08:28:27;;;;;;;;;;;21.60;94.30;;;;;;5093017;27;38367;-46
2022/05/17 08:30:55;;;;;;;;;;;21.70;94.70;;;;;;5094074;27;36200;-46
2022/05/17 08:33:23;;;;;;;;;;;21.90;94.10;;;;;;5093004;27;37905;-46
2022/05/17 08:35:52;;;;;;;;;;;21.90;94.70;;;;;;5092203;27;37670;-45
2022/05/17 08:38:21;;;;;;;;;;;22.10;94.10;;;;;;5094047;27;37924;-50
2022/05/17 08:40:55;;;;;;;;;;;22.10;93.90;;;;;;5092933;27;36899;-47
2022/05/17 08:43:25;;;;;;;;;;;22.20;92.80;;;;;;5085547;27;36554;-46
2022/05/17 08:46:17;;;;;;;;;;;22.30;92.70;;;;;;5087821;27;39620;-46
2022/05/17 08:48:48;;;;;;;;;;;22.40;92.50;;;;;;5090936;27;37987;-59
2022/05/17 08:51:17;;;;;;;;;;;22.50;92.50;;;;;;5092870;27;34635;-60
2022/05/17 08:53:45;;;;;;;;;;;22.60;91.60;;;;;;5092978;27;37756;-49
2022/05/17 08:56:13;;;;;;;;;;;22.70;91.60;;;;;;5093388;27;37324;-49
2022/05/17 08:58:42;;;;;;;;;;;22.80;91.70;;;;;;5091882;27;39507;-49
2022/05/17 09:01:16;;;;;;;;;;;22.80;91.80;;;;;;5092654;27;37916;-46
2022/05/17 09:03:45;;;;;;;;;;;23.00;91.00;;;;;;5091897;27;37575;-49
2022/05/17 09:06:18;;;;;;;;;;;23.10;91.10;;;;;;5093263;27;39888;-48
2022/05/17 09:08:49;;;;;;;;;;;23.20;90.90;;;;;;5093351;27;38838;-50
2022/05/17 09:11:19;;;;;;;;;;;23.30;89.80;;;;;;5089524;27;35224;-47
2022/05/17 09:13:48;;;;;;;;;;;23.30;88.60;;;;;;5092752;27;38225;-50
2022/05/17 09:16:17;;;;;;;;;;;23.40;86.40;;;;;;5093371;27;37784;-50
2022/05/17 09:18:45;;;;;;;;;;;23.40;84.80;;;;;;5091985;27;36933;-47
2022/05/17 09:21:23;;;;;;;;;;;23.50;86.50;;;;;;5092740;27;35821;-48
2022/05/17 09:23:50;;;;;;;;;;;23.70;82.70;;;;;;5093203;27;38341;-49
2022/05/17 09:26:19;;;;;;;;;;;23.70;84.50;;;;;;5093311;27;38035;-50
2022/05/17 09:28:48;;;;;;;;;;;23.90;83.80;;;;;;5089790;27;37095;-50
2022/05/17 09:31:17;;;;;;;;;;;23.90;82.10;;;;;;5092515;27;37509;-47
2022/05/17 09:33:48;;;;;;;;;;;24.00;80.50;;;;;;5092433;27;36507;-50
2022/05/17 09:36:18;;;;;;;;;;;24.10;82.90;;;;;;5097353;27;39042;-48
2022/05/17 09:38:47;;;;;;;;;;;24.20;82.20;;;;;;5096424;27;37367;-47
2022/05/17 09:41:17;;;;;;;;;;;24.30;78.50;;;;;;5096978;27;36127;-46
2022/05/17 09:43:45;;;;;;;;;;;24.30;79.00;;;;;;5097634;27;36393;-49
2022/05/17 09:46:14;;;;;;;;;;;24.40;77.60;;;;;;5095340;27;36879;-49
2022/05/17 09:54:27;;;;;;;;;;;24.60;77.70;;;;;;5097143;27;38093;-47
2022/05/17 09:56:55;;;;;;;;;;;24.60;73.10;;;;;;5095487;27;37747;-47
2022/05/17 09:59:23;;;;;;;;;;;24.60;74.50;;;;;;5095118;27;37229;-49
2022/05/17 10:01:50;;;;;;;;;;;24.70;73.60;;;;;;5095815;27;36586;-50
2022/05/17 10:04:20;;;;;;;;;;;24.80;73.40;;;;;;5095248;27;37803;-49
2022/05/17 10:06:53;;;;;;;;;;;24.90;74.00;;;;;;5096340;27;38038;-50
2022/05/17 10:09:28;;;;;;;;;;;25.00;72.10;;;;;;5095347;27;37314;-46
2022/05/17 10:11:58;;;;;;;;;;;25.00;69.00;;;;;;5094419;27;36055;-50
2022/05/17 10:14:30;;;;;;;;;;;25.00;69.20;;;;;;5094311;27;39463;-48
2022/05/17 10:17:00;;;;;;;;;;;25.10;66.50;;;;;;5095190;27;38147;-46
2022/05/17 10:19:32;;;;;;;;;;;25.20;66.10;;;;;;5094972;27;38678;-49
2022/05/17 10:22:05;;;;;;;;;;;25.20;62.30;;;;;;5094868;27;36570;-46
2022/05/17 10:24:36;;;;;;;;;;;25.10;66.00;;;;;;5094828;27;38995;-49
2022/05/17 10:27:06;;;;;;;;;;;25.20;67.40;;;;;;5094658;27;38237;-47
2022/05/17 10:29:37;;;;;;;;;;;25.20;65.90;;;;;;5096143;27;38404;-51
2022/05/17 10:32:08;;;;;;;;;;;25.20;64.80;;;;;;5094810;27;35350;-47
2022/05/17 10:34:40;;;;;;;;;;;25.20;67.50;;;;;;5093367;27;38020;-49
2022/05/17 10:37:13;;;;;;;;;;;25.40;67.20;;;;;;5095533;27;36703;-49
2022/05/17 10:39:42;;;;;;;;;;;25.40;65.60;;;;;;5095629;27;38699;-47
2022/05/17 10:42:10;;;;;;;;;;;25.50;68.40;;;;;;5095107;27;38711;-45
2022/05/17 10:44:39;;;;;;;;;;;25.60;67.70;;;;;;5095598;27;38794;-49
2022/05/17 10:47:12;;;;;;;;;;;25.60;64.20;;;;;;5093286;27;38559;-49
2022/05/17 10:49:45;;;;;;;;;;;25.60;62.20;;;;;;5094411;27;35953;-48
2022/05/17 10:52:16;;;;;;;;;;;25.70;63.20;;;;;;5094449;27;36145;-48
2022/05/17 10:54:48;;;;;;;;;;;25.70;61.90;;;;;;5093600;27;37765;-49
2022/05/17 10:57:21;;;;;;;;;;;25.80;64.10;;;;;;5094552;27;37922;-50
2022/05/17 10:59:57;;;;;;;;;;;25.80;62.60;;;;;;5095596;27;37120;-51
2022/05/17 11:02:31;;;;;;;;;;;25.80;62.00;;;;;;5090259;27;37691;-48
2022/05/17 11:05:08;;;;;;;;;;;25.80;62.20;;;;;;5092843;27;37987;-49
2022/05/17 11:07:43;;;;;;;;;;;25.80;61.10;;;;;;5093318;27;37714;-49
2022/05/17 11:10:15;;;;;;;;;;;25.80;58.30;;;;;;5093856;27;38300;-50
2022/05/17 11:12:46;;;;;;;;;;;25.70;58.00;;;;;;5093345;27;38873;-49
2022/05/17 11:15:16;;;;;;;;;;;25.70;58.10;;;;;;5093677;27;37678;-50
2022/05/17 11:17:50;;;;;;;;;;;25.70;58.40;;;;;;5093403;27;38999;-49
2022/05/17 11:20:22;;;;;;;;;;;25.60;57.30;;;;;;5093852;27;38902;-48
2022/05/17 11:22:59;;;;;;;;;;;25.60;55.50;;;;;;5093893;27;38848;-47
2022/05/17 11:25:44;;;;;;;;;;;25.40;56.80;;;;;;5093550;27;38223;-50
2022/05/17 11:28:19;;;;;;;;;;;25.30;55.40;;;;;;5093447;27;37745;-49
2022/05/17 11:30:50;;;;;;;;;;;25.30;55.90;;;;;;5094066;27;37333;-49
2022/05/17 11:33:31;;;;;;;;;;;25.40;57.40;;;;;;5090956;27;35293;-48
2022/05/17 11:35:58;;;;;;;;;;;25.40;57.70;;;;;;5093733;27;36526;-49
2022/05/17 11:38:43;;;;;;;;;;;25.40;57.80;;;;;;5093318;27;37572;-49
2022/05/17 11:41:16;;;;;;;;;;;25.40;58.40;;;;;;5090735;27;37142;-49
2022/05/17 11:43:48;;;;;;;;;;;25.30;61.50;;;;;;5092878;27;36600;-49
2022/05/17 11:46:34;;;;;;;;;;;25.00;61.50;;;;;;5093798;27;37874;-49
2022/05/17 11:49:02;;;;;;;;;;;24.90;62.50;;;;;;5091927;27;38139;-48
2022/05/17 11:51:31;;;;;;;;;;;25.00;63.50;;;;;;5093678;27;37348;-50
2022/05/17 11:53:58;;;;;;;;;;;25.00;61.00;;;;;;5083769;27;36775;-51
2022/05/17 11:56:35;;;;;;;;;;;25.00;58.60;;;;;;5093339;27;36407;-48
2022/05/17 11:59:17;;;;;;;;;;;25.00;59.70;;;;;;5093239;27;36781;-47
2022/05/17 12:01:46;;;;;;;;;;;25.00;59.70;;;;;;5090007;27;38535;-49
2022/05/17 12:04:31;;;;;;;;;;;25.10;60.50;;;;;;5092282;27;38416;-49
2022/05/17 12:07:16;;;;;;;;;;;25.10;60.00;;;;;;5093649;27;37847;-51
2022/05/17 12:09:48;;;;;;;;;;;25.10;55.60;;;;;;5080863;27;39601;-49
2022/05/17 12:12:26;;;;;;;;;;;25.10;55.90;;;;;;5091714;27;37230;-49
2022/05/17 12:15:01;;;;;;;;;;;25.10;58.20;;;;;;5088884;27;35648;-49
2022/05/17 12:17:31;;;;;;;;;;;25.00;58.60;;;;;;5090713;27;36528;-52
2022/05/17 12:20:02;;;;;;;;;;;24.90;59.70;;;;;;5090673;27;38153;-50
2022/05/17 12:22:32;;;;;;;;;;;24.80;59.20;;;;;;5091465;27;37054;-46
2022/05/17 12:25:03;;;;;;;;;;;24.80;60.30;;;;;;5092032;27;36270;-47
2022/05/17 12:27:32;;;;;;;;;;;24.80;59.60;;;;;;5092731;27;37588;-49
2022/05/17 12:32:50;;;;;;;;;;;24.70;55.20;;;;;;5090629;27;37972;-50
2022/05/17 12:35:23;;;;;;;;;;;24.70;53.20;;;;;;5093412;27;34379;-51
2022/05/17 12:37:50;;;;;;;;;;;24.60;55.60;;;;;;5092535;27;39931;-50
2022/05/17 12:43:11;;;;;;;;;;;24.40;56.50;;;;;;5094546;27;37110;-51
2022/05/17 12:45:39;;;;;;;;;;;24.40;56.40;;;;;;5092848;27;36561;-50
2022/05/17 12:48:17;;;;;;;;;;;24.40;58.00;;;;;;5091648;27;37904;-50
2022/05/17 12:50:45;;;;;;;;;;;24.40;57.80;;;;;;5090378;27;38986;-51
2022/05/17 12:53:19;;;;;;;;;;;24.50;54.80;;;;;;5093150;27;37255;-50
2022/05/17 12:55:57;;;;;;;;;;;24.50;57.00;;;;;;5093041;27;36227;-51
2022/05/17 12:58:25;;;;;;;;;;;24.40;54.00;;;;;;5093242;27;37715;-51
2022/05/17 13:00:53;;;;;;;;;;;24.40;55.20;;;;;;5093073;27;38609;-49
2022/05/17 13:03:21;;;;;;;;;;;24.30;55.10;;;;;;5093395;27;38461;-50
2022/05/17 13:05:51;;;;;;;;;;;24.30;56.00;;;;;;5086981;27;36699;-50
2022/05/17 13:08:19;;;;;;;;;;;24.40;57.90;;;;;;5090893;27;38288;-50
2022/05/17 13:10:58;;;;;;;;;;;24.30;57.50;;;;;;5093332;27;38100;-49
2022/05/17 13:13:27;;;;;;;;;;;24.30;56.00;;;;;;5092160;27;38292;-50
2022/05/17 13:15:56;;;;;;;;;;;24.20;55.90;;;;;;5094144;27;36378;-48
2022/05/17 13:18:24;;;;;;;;;;;24.20;57.20;;;;;;5096513;27;36669;-47
2022/05/17 13:20:52;;;;;;;;;;;24.20;56.80;;;;;;5097412;27;39653;-50
2022/05/17 13:23:20;;;;;;;;;;;24.30;58.00;;;;;;5095401;27;37504;-50
2022/05/17 13:25:48;;;;;;;;;;;24.30;53.00;;;;;;5095432;27;36542;-49
2022/05/17 13:28:24;;;;;;;;;;;24.30;56.90;;;;;;5096788;27;38642;-46
2022/05/17 13:31:02;;;;;;;;;;;24.30;58.60;;;;;;5094444;27;37460;-48
2022/05/17 13:33:32;;;;;;;;;;;24.30;58.10;;;;;;5096154;27;36122;-49
2022/05/17 13:36:10;;;;;;;;;;;24.40;58.20;;;;;;5096257;27;36045;-51
2022/05/17 13:38:38;;;;;;;;;;;24.40;59.70;;;;;;5096615;27;39849;-50
2022/05/17 13:41:16;;;;;;;;;;;24.30;58.60;;;;;;5095897;27;37953;-47
2022/05/17 13:43:53;;;;;;;;;;;24.30;57.80;;;;;;5095508;27;37224;-49
2022/05/17 13:46:24;;;;;;;;;;;24.20;56.90;;;;;;5096012;27;36609;-50
2022/05/17 13:48:54;;;;;;;;;;;24.00;57.10;;;;;;5095609;27;37939;-50
2022/05/17 13:51:24;;;;;;;;;;;23.90;57.10;;;;;;5095576;27;37991;-51
2022/05/17 13:53:55;;;;;;;;;;;23.90;58.40;;;;;;5095979;27;37949;-49
2022/05/17 13:56:28;;;;;;;;;;;23.90;57.20;;;;;;5095655;27;36002;-48
2022/05/17 13:58:56;;;;;;;;;;;23.90;57.30;;;;;;5095461;27;38744;-47
2022/05/17 14:01:31;;;;;;;;;;;23.90;59.10;;;;;;5094915;27;38458;-46
2022/05/17 14:04:05;;;;;;;;;;;23.90;59.90;;;;;;5092535;27;37218;-50
2022/05/17 14:06:42;;;;;;;;;;;24.00;60.60;;;;;;5095361;27;36277;-47
2022/05/17 14:11:55;;;;;;;;;;;23.90;62.00;;;;;;5095291;27;39460;-47
2022/05/17 14:14:23;;;;;;;;;;;23.90;59.60;;;;;;5094847;27;37373;-48
2022/05/17 14:16:54;;;;;;;;;;;23.90;61.70;;;;;;5095819;27;36922;-47
2022/05/17 14:19:21;;;;;;;;;;;23.80;60.40;;;;;;5094605;27;37990;-48
2022/05/17 14:21:51;;;;;;;;;;;23.80;60.80;;;;;;5094520;27;38035;-48
2022/05/17 14:24:19;;;;;;;;;;;23.70;59.60;;;;;;5095402;27;37085;-50
2022/05/17 14:26:47;;;;;;;;;;;23.70;57.80;;;;;;5096753;27;36119;-49
2022/05/17 14:29:14;;;;;;;;;;;23.70;58.10;;;;;;5095995;27;37160;-48
2022/05/17 14:31:43;;;;;;;;;;;23.60;57.30;;;;;;5093761;27;38038;-47
2022/05/17 14:34:13;;;;;;;;;;;23.60;58.70;;;;;;5092420;27;37383;-50
2022/05/17 14:36:40;;;;;;;;;;;23.60;58.60;;;;;;5093840;27;38347;-47
2022/05/17 14:39:07;;;;;;;;;;;23.60;57.20;;;;;;5095317;27;39120;-59
2022/05/17 14:41:35;;;;;;;;;;;23.60;58.50;;;;;;5094791;27;36649;-59
2022/05/17 14:44:02;;;;;;;;;;;23.60;58.60;;;;;;5093613;27;38014;-59
2022/05/17 14:46:29;;;;;;;;;;;23.70;59.60;;;;;;5094172;27;37728;-59
2022/05/17 14:48:57;;;;;;;;;;;23.70;59.90;;;;;;5094240;27;36660;-59